Аэропорт: Ульяновск-Восточный. Ульяновск

ICAO: UWLW

METAR:
2020-10-19 15:00:00
UWLW 191500Z 27004MPS 8000 NSC 05/M01 Q1014 R20/CLRD60 NOSIG RMK QFE755
METAR:
2020-10-19 13:53:00
TAF UWLW 191353Z 1915/2015 23003MPS 8000 BKN020 TX09/2011Z TN03/1921Z TEMPO 1915/1922 27003G09MPS SCT030CB TEMPO 1922/2006 25005G11MPS -SHRA BKN016CB BECMG 2006/2007 26006G13MPS